createdAt,value
2022-10-09T00:01:24.361Z,68.17
2022-10-09T00:03:54.142Z,68.44
2022-10-09T00:06:28.425Z,68.92
2022-10-09T00:08:54.917Z,68.86
2022-10-09T00:11:26.171Z,69.34
2022-10-09T00:13:55.273Z,69.35
2022-10-09T00:16:23.591Z,68.76
2022-10-09T00:18:51.203Z,68.39
2022-10-09T00:21:26.445Z,68.76
2022-10-09T00:23:56.464Z,68.97
2022-10-09T00:26:24.379Z,69.43
2022-10-09T00:28:50.977Z,68.78
2022-10-09T00:31:18.658Z,68.03
2022-10-09T00:33:45.437Z,67.67
2022-10-09T00:36:31.220Z,66.93
2022-10-09T00:38:57.838Z,66.83
2022-10-09T00:41:29.729Z,66.34
2022-10-09T00:43:59.450Z,67.30
2022-10-09T00:46:34.476Z,67.56
2022-10-09T00:49:30.812Z,67.72
2022-10-09T00:52:01.813Z,67.58
2022-10-09T00:54:37.093Z,67.74
2022-10-09T00:57:03.826Z,68.60
2022-10-09T00:59:31.845Z,68.63
2022-10-09T01:01:58.481Z,68.47
2022-10-09T01:04:25.203Z,68.92
2022-10-09T01:07:27.776Z,68.28
2022-10-09T01:09:59.607Z,68.03
2022-10-09T01:12:49.035Z,67.46
2022-10-09T01:15:33.354Z,67.49
2022-10-09T01:18:31.937Z,67.27
2022-10-09T01:21:11.583Z,67.64
2022-10-09T01:24:09.082Z,68.55
2022-10-09T01:27:05.717Z,68.89
2022-10-09T01:29:40.185Z,69.04
2022-10-09T01:32:12.908Z,69.09
2022-10-09T01:34:42.583Z,68.90
2022-10-09T01:37:12.915Z,69.27
2022-10-09T01:39:42.791Z,69.12
2022-10-09T01:42:13.836Z,69.25
2022-10-09T01:44:41.206Z,69.68
2022-10-09T01:47:15.872Z,69.73
2022-10-09T01:50:14.804Z,69.86
2022-10-09T01:52:52.090Z,70.55
2022-10-09T01:55:43.915Z,70.44
2022-10-09T01:58:19.022Z,70.21
2022-10-09T02:01:11.146Z,69.71
2022-10-09T02:03:42.544Z,70.22
2022-10-09T02:06:15.214Z,70.61
2022-10-09T02:08:45.464Z,70.15
2022-10-09T02:11:15.090Z,70.88
2022-10-09T02:13:43.987Z,70.66
2022-10-09T02:16:18.681Z,70.51
2022-10-09T02:18:55.849Z,70.07
2022-10-09T02:21:29.167Z,70.29
2022-10-09T02:23:58.743Z,70.61
2022-10-09T02:26:26.803Z,70.02
2022-10-09T02:28:54.065Z,70.17
2022-10-09T02:31:31.308Z,69.37
2022-10-09T02:34:08.841Z,69.08
2022-10-09T02:36:36.555Z,69.22
2022-10-09T02:39:06.207Z,69.12
2022-10-09T02:41:33.496Z,68.76
2022-10-09T02:44:00.552Z,68.48
2022-10-09T02:46:27.008Z,68.93
2022-10-09T02:48:53.935Z,68.89
2022-10-09T02:51:20.650Z,69.02
2022-10-09T02:53:47.355Z,69.65
2022-10-09T02:56:13.831Z,69.18
2022-10-09T02:58:40.580Z,68.81
2022-10-09T03:01:07.635Z,68.28
2022-10-09T03:03:34.140Z,67.91
2022-10-09T03:06:13.734Z,67.27
2022-10-09T03:08:44.473Z,67.35
2022-10-09T03:11:12.202Z,67.14
2022-10-09T03:13:39.647Z,68.19
2022-10-09T03:16:12.898Z,67.76
2022-10-09T03:18:40.527Z,67.41
2022-10-09T03:21:10.286Z,67.35
2022-10-09T03:23:37.907Z,67.78
2022-10-09T03:26:11.651Z,68.55
2022-10-09T03:28:42.129Z,68.90
2022-10-09T03:31:22.373Z,69.45
2022-10-09T03:33:57.341Z,69.55
2022-10-09T03:36:24.367Z,70.07
2022-10-09T03:38:50.880Z,70.25
2022-10-09T03:41:17.315Z,70.09
2022-10-09T03:43:43.781Z,70.22
2022-10-09T03:46:11.201Z,69.41
2022-10-09T03:48:38.233Z,69.77
2022-10-09T03:51:04.842Z,69.85
2022-10-09T03:53:31.550Z,70.20
2022-10-09T03:55:58.032Z,69.73
2022-10-09T03:58:24.994Z,69.48
2022-10-09T04:00:52.806Z,69.42
2022-10-09T04:03:20.811Z,69.45
2022-10-09T04:05:47.780Z,68.86
2022-10-09T04:08:14.293Z,69.21
2022-10-09T04:10:40.873Z,69.38
2022-10-09T04:13:07.319Z,69.51
2022-10-09T04:15:35.152Z,69.73
2022-10-09T04:18:01.707Z,70.04
2022-10-09T04:20:28.372Z,69.89
2022-10-09T04:22:54.822Z,70.42
2022-10-09T04:25:21.326Z,70.40
2022-10-09T04:27:47.736Z,70.00
2022-10-09T04:30:14.191Z,70.28
2022-10-09T04:32:40.618Z,69.60
2022-10-09T04:35:07.727Z,69.73
2022-10-09T04:37:36.522Z,70.35
2022-10-09T04:40:03.895Z,70.04
2022-10-09T04:42:30.523Z,69.90
2022-10-09T04:44:56.972Z,69.80
2022-10-09T04:47:24.180Z,69.68
2022-10-09T04:49:50.650Z,69.58
2022-10-09T04:52:17.108Z,68.80
2022-10-09T04:54:43.571Z,69.08
2022-10-09T04:57:10.004Z,69.36
2022-10-09T04:59:36.479Z,69.28
2022-10-09T05:02:03.631Z,68.84
2022-10-09T05:04:30.300Z,69.02
2022-10-09T05:06:56.748Z,68.73
2022-10-09T05:09:23.245Z,68.60
2022-10-09T05:11:49.818Z,68.42
2022-10-09T05:14:16.573Z,68.08
2022-10-09T05:17:08.152Z,68.86
2022-10-09T05:19:29.624Z,69.48
2022-10-09T05:21:56.137Z,69.58
2022-10-09T05:24:22.594Z,69.38
2022-10-09T05:26:49.055Z,69.40
2022-10-09T05:29:15.537Z,69.85
2022-10-09T05:31:48.370Z,69.92
2022-10-09T05:34:16.208Z,70.17
2022-10-09T05:36:42.763Z,70.67
2022-10-09T05:39:09.213Z,70.34
2022-10-09T05:41:35.655Z,70.04
2022-10-09T05:44:04.362Z,70.21
2022-10-09T05:46:30.941Z,69.91
2022-10-09T05:49:01.800Z,69.66
2022-10-09T05:51:31.542Z,70.00
2022-10-09T05:53:59.719Z,70.35
2022-10-09T05:56:35.895Z,70.52
2022-10-09T05:59:06.607Z,70.24
2022-10-09T06:01:42.545Z,70.84
2022-10-09T06:04:15.527Z,70.38
2022-10-09T06:06:42.779Z,70.04
2022-10-09T06:09:11.750Z,69.59
2022-10-09T06:11:40.408Z,68.81
2022-10-09T06:14:09.953Z,68.59
2022-10-09T06:16:40.935Z,68.82
2022-10-09T06:19:11.741Z,68.30
2022-10-09T06:21:38.300Z,68.04
2022-10-09T06:24:05.965Z,68.37
2022-10-09T06:26:33.769Z,68.36
2022-10-09T06:29:02.380Z,68.32
2022-10-09T06:31:32.574Z,68.55
2022-10-09T06:34:01.900Z,69.01
2022-10-09T06:36:32.453Z,69.14
2022-10-09T06:39:01.529Z,69.30
2022-10-09T06:41:29.981Z,69.59
2022-10-09T06:44:02.562Z,69.77
2022-10-09T06:46:36.198Z,69.98
2022-10-09T06:49:04.472Z,70.41
2022-10-09T06:51:33.736Z,69.92
2022-10-09T06:54:04.601Z,69.71
2022-10-09T06:56:32.320Z,68.94
2022-10-09T06:59:07.064Z,68.71
2022-10-09T07:01:34.277Z,68.68
2022-10-09T07:04:06.823Z,69.27
2022-10-09T07:06:38.499Z,68.85
2022-10-09T07:09:08.690Z,69.01
2022-10-09T07:11:38.447Z,69.02
2022-10-09T07:14:08.272Z,69.43
2022-10-09T07:16:38.894Z,69.30
2022-10-09T07:19:08.360Z,69.32
2022-10-09T07:21:35.786Z,69.39
2022-10-09T07:24:04.293Z,69.51
2022-10-09T07:26:34.122Z,69.65
2022-10-09T07:29:01.276Z,70.23
2022-10-09T07:31:27.971Z,70.27
2022-10-09T07:33:56.769Z,70.77
2022-10-09T07:36:23.897Z,70.59
2022-10-09T07:38:57.845Z,70.04
2022-10-09T07:41:28.657Z,70.41
2022-10-09T07:43:56.086Z,70.91
2022-10-09T07:46:27.615Z,71.60
2022-10-09T07:48:56.278Z,71.33
2022-10-09T07:51:29.168Z,71.37
2022-10-09T07:53:57.284Z,71.43
2022-10-09T07:56:29.297Z,71.20
2022-10-09T07:58:59.585Z,71.19
2022-10-09T08:01:30.105Z,71.39
2022-10-09T08:03:58.992Z,71.42
2022-10-09T08:06:26.575Z,71.00
2022-10-09T08:08:56.374Z,71.64
2022-10-09T08:11:25.744Z,72.13
2022-10-09T08:13:53.694Z,72.58
2022-10-09T08:16:23.278Z,72.13
2022-10-09T08:18:54.728Z,71.99
2022-10-09T08:21:21.235Z,72.63
2022-10-09T08:23:47.727Z,71.33
2022-10-09T08:26:22.593Z,72.44
2022-10-09T08:29:04.403Z,72.31
2022-10-09T08:31:32.142Z,72.10
2022-10-09T08:34:02.803Z,72.17
2022-10-09T08:36:30.456Z,72.20
2022-10-09T08:38:57.311Z,71.72
2022-10-09T08:41:48.872Z,72.69
2022-10-09T08:44:24.429Z,71.88
2022-10-09T08:47:03.712Z,72.07
2022-10-09T08:49:50.444Z,71.45
2022-10-09T08:52:50.477Z,73.25
2022-10-09T08:55:25.727Z,72.31
2022-10-09T08:57:56.597Z,72.00
2022-10-09T09:00:29.138Z,72.07
2022-10-09T09:03:12.805Z,72.22
2022-10-09T09:06:09.616Z,72.00
2022-10-09T09:09:07.613Z,72.79
2022-10-09T09:12:17.689Z,74.23
2022-10-09T09:15:07.438Z,73.46
2022-10-09T09:17:54.176Z,73.46
2022-10-09T09:20:53.073Z,73.10
2022-10-09T09:23:34.172Z,72.18
2022-10-09T09:26:02.053Z,72.23
2022-10-09T09:28:34.585Z,71.58
2022-10-09T09:31:35.491Z,73.48
2022-10-09T09:34:12.947Z,72.14
2022-10-09T09:36:44.857Z,71.95
2022-10-09T09:42:14.650Z,71.55
2022-10-09T09:45:02.977Z,71.11
2022-10-09T09:47:48.824Z,71.38
2022-10-09T09:50:42.237Z,71.25
2022-10-09T09:53:20.667Z,70.98
2022-10-09T09:55:53.606Z,70.58
2022-10-09T09:58:21.853Z,70.62
2022-10-09T10:01:00.840Z,70.51
2022-10-09T10:03:29.152Z,70.41
2022-10-09T10:05:55.727Z,69.92
2022-10-09T10:08:34.538Z,70.00
2022-10-09T10:11:06.912Z,69.84
2022-10-09T10:13:39.039Z,69.60
2022-10-09T10:16:09.251Z,69.18
2022-10-09T10:18:42.885Z,68.66
2022-10-09T10:21:14.896Z,68.23
2022-10-09T10:23:59.144Z,68.08
2022-10-09T10:26:58.295Z,67.84
2022-10-09T10:29:43.835Z,67.18
2022-10-09T10:32:34.770Z,67.39
2022-10-09T10:35:29.456Z,66.67
2022-10-09T10:38:06.242Z,67.07
2022-10-09T10:40:56.641Z,66.76
2022-10-09T10:43:50.476Z,66.88
2022-10-09T10:46:30.997Z,67.06
2022-10-09T10:49:01.474Z,66.95
2022-10-09T10:51:46.577Z,65.64
2022-10-09T10:54:22.286Z,65.42
2022-10-09T10:56:59.365Z,64.63
2022-10-09T10:59:51.407Z,63.38
2022-10-09T11:02:52.507Z,63.94
2022-10-09T11:05:35.590Z,63.91
2022-10-09T11:08:40.518Z,63.62
2022-10-09T11:11:29.417Z,63.10
2022-10-09T11:14:25.938Z,60.97
2022-10-09T11:17:42.440Z,62.41
2022-10-09T11:20:41.667Z,61.18
2022-10-09T11:23:55.727Z,60.66
2022-10-09T11:26:37.634Z,60.46
2022-10-09T11:29:19.584Z,59.87
2022-10-09T11:31:55.818Z,59.51
2022-10-09T11:34:42.718Z,59.04
2022-10-09T11:37:20.317Z,58.75
2022-10-09T11:39:46.972Z,58.38
2022-10-09T11:42:23.816Z,58.12
2022-10-09T11:45:14.351Z,58.58
2022-10-09T11:48:08.614Z,58.47
2022-10-09T11:51:12.535Z,57.96
2022-10-09T11:53:40.040Z,58.44
2022-10-09T11:56:23.983Z,58.01
2022-10-09T11:59:04.059Z,56.90
2022-10-09T12:01:42.910Z,56.97
2022-10-09T12:04:12.167Z,57.24
2022-10-09T12:06:55.685Z,56.41
2022-10-09T12:09:36.248Z,57.13
2022-10-09T12:12:23.633Z,57.31
2022-10-09T12:14:52.939Z,56.73
2022-10-09T12:17:22.354Z,56.57
2022-10-09T12:19:58.558Z,55.45
2022-10-09T12:23:13.946Z,56.00
2022-10-09T12:25:45.505Z,55.53
2022-10-09T12:28:27.867Z,53.21
2022-10-09T12:30:57.805Z,54.57
2022-10-09T12:33:34.939Z,54.04
2022-10-09T12:36:30.020Z,51.04
2022-10-09T12:38:56.651Z,53.19
2022-10-09T12:41:34.280Z,52.95
2022-10-09T12:44:02.331Z,53.46
2022-10-09T12:46:39.153Z,51.71
2022-10-09T12:49:20.426Z,51.36
2022-10-09T12:51:58.455Z,50.99
2022-10-09T12:54:27.636Z,51.76
2022-10-09T12:56:57.842Z,52.18
2022-10-09T12:59:28.547Z,51.23
2022-10-09T13:02:00.029Z,50.55
2022-10-09T13:04:32.065Z,50.37
2022-10-09T13:07:17.283Z,50.40
2022-10-09T13:09:43.895Z,50.53
2022-10-09T13:12:22.519Z,50.22
2022-10-09T13:14:53.171Z,50.14
2022-10-09T13:17:39.097Z,48.99
2022-10-09T13:20:11.715Z,49.41
2022-10-09T13:22:39.734Z,50.98
2022-10-09T13:25:07.250Z,51.65
2022-10-09T13:27:39.039Z,51.71
2022-10-09T13:30:07.352Z,52.06
2022-10-09T13:32:33.803Z,52.24
2022-10-09T13:35:00.259Z,52.42
2022-10-09T13:37:27.765Z,52.51
2022-10-09T13:39:57.255Z,51.99
2022-10-09T13:42:36.913Z,52.30
2022-10-09T13:45:05.406Z,52.78
2022-10-09T13:47:31.984Z,52.31
2022-10-09T13:49:58.996Z,52.59
2022-10-09T13:52:25.634Z,52.92
2022-10-09T13:54:52.280Z,53.23
2022-10-09T13:57:18.939Z,53.15
2022-10-09T13:59:45.680Z,52.84
2022-10-09T14:02:12.619Z,52.53
2022-10-09T14:04:39.229Z,52.41
2022-10-09T14:07:05.666Z,52.66
2022-10-09T14:09:32.163Z,52.48
2022-10-09T14:11:58.817Z,52.84
2022-10-09T14:14:25.246Z,52.79
2022-10-09T14:16:51.800Z,52.43
2022-10-09T14:19:18.306Z,52.78
2022-10-09T14:21:46.679Z,53.29
2022-10-09T14:24:14.318Z,52.94
2022-10-09T14:26:41.167Z,52.77
2022-10-09T14:29:07.727Z,52.35
2022-10-09T14:31:34.150Z,52.37
2022-10-09T14:34:00.669Z,52.26
2022-10-09T14:36:28.175Z,51.99
2022-10-09T14:38:55.590Z,52.12
2022-10-09T14:41:22.686Z,52.36
2022-10-09T14:43:57.633Z,52.49
2022-10-09T14:46:25.736Z,52.35
2022-10-09T14:48:55.571Z,51.83
2022-10-09T14:51:25.889Z,51.92
2022-10-09T14:53:59.082Z,52.14
2022-10-09T14:56:27.564Z,52.31
2022-10-09T14:58:54.660Z,52.75
2022-10-09T15:01:22.826Z,52.50
2022-10-09T15:03:49.566Z,52.95
2022-10-09T15:06:24.115Z,52.39
2022-10-09T15:08:55.935Z,52.07
2022-10-09T15:11:23.200Z,51.98
2022-10-09T15:13:49.669Z,51.92
2022-10-09T15:16:19.247Z,51.86
2022-10-09T15:18:49.337Z,51.78
2022-10-09T15:21:21.705Z,51.65
2022-10-09T15:23:50.810Z,51.72
2022-10-09T15:26:17.419Z,52.16
2022-10-09T15:28:44.884Z,51.96
2022-10-09T15:31:29.011Z,52.47
2022-10-09T15:33:57.689Z,52.95
2022-10-09T15:36:25.115Z,52.67
2022-10-09T15:38:51.570Z,52.68
2022-10-09T15:41:31.575Z,52.65
2022-10-09T15:44:04.707Z,53.05
2022-10-09T15:46:31.621Z,53.12
2022-10-09T15:48:58.564Z,53.65
2022-10-09T15:51:25.713Z,53.74
2022-10-09T15:53:52.907Z,53.33
2022-10-09T15:56:24.613Z,52.95
2022-10-09T15:58:53.035Z,53.54
2022-10-09T16:01:21.330Z,53.67
2022-10-09T16:03:48.709Z,54.47
2022-10-09T16:06:20.249Z,54.97
2022-10-09T16:08:47.320Z,55.48
2022-10-09T16:11:20.231Z,56.04
2022-10-09T16:13:49.893Z,56.81
2022-10-09T16:16:20.942Z,56.73
2022-10-09T16:18:48.403Z,56.65
2022-10-09T16:21:25.015Z,56.13
2022-10-09T16:23:57.360Z,57.28
2022-10-09T16:26:27.319Z,57.25
2022-10-09T16:28:53.960Z,57.45
2022-10-09T16:31:30.639Z,57.23
2022-10-09T16:33:57.516Z,58.45
2022-10-09T16:36:24.012Z,58.11
2022-10-09T16:38:50.472Z,58.43
2022-10-09T16:41:20.355Z,58.69
2022-10-09T16:43:49.693Z,59.09
2022-10-09T16:46:32.026Z,59.56
2022-10-09T16:49:00.807Z,60.19
2022-10-09T16:51:34.402Z,59.73
2022-10-09T16:54:04.663Z,60.32
2022-10-09T16:56:37.973Z,60.54
2022-10-09T16:59:12.006Z,60.37
2022-10-09T17:01:43.598Z,60.26
2022-10-09T17:04:11.482Z,60.59
2022-10-09T17:06:43.963Z,60.97
2022-10-09T17:09:14.059Z,60.64
2022-10-09T17:11:41.592Z,60.79
2022-10-09T17:14:08.126Z,61.02
2022-10-09T17:16:38.546Z,61.73
2022-10-09T17:19:06.241Z,61.46
2022-10-09T17:21:34.660Z,61.97
2022-10-09T17:24:06.436Z,61.38
2022-10-09T17:26:33.695Z,62.20
2022-10-09T17:29:02.011Z,62.62
2022-10-09T17:31:29.402Z,62.45
2022-10-09T17:34:02.689Z,62.56
2022-10-09T17:36:36.563Z,63.02
2022-10-09T17:39:07.837Z,63.56
2022-10-09T17:41:34.946Z,63.42
2022-10-09T17:44:01.645Z,63.30
2022-10-09T17:46:30.609Z,63.53
2022-10-09T17:48:59.525Z,63.98
2022-10-09T17:51:33.235Z,64.17
2022-10-09T17:54:12.205Z,64.23
2022-10-09T17:56:39.774Z,64.91
2022-10-09T17:59:06.631Z,65.03
2022-10-09T18:01:33.657Z,64.95
2022-10-09T18:04:00.543Z,65.49
2022-10-09T18:06:31.753Z,65.35
2022-10-09T18:08:58.662Z,65.71
2022-10-09T18:11:27.416Z,65.59
2022-10-09T18:13:54.400Z,65.67
2022-10-09T18:16:35.324Z,65.72
2022-10-09T18:19:13.423Z,65.95
2022-10-09T18:21:47.315Z,65.76
2022-10-09T18:24:14.688Z,65.51
2022-10-09T18:26:43.018Z,65.40
2022-10-09T18:29:09.510Z,65.58
2022-10-09T18:31:37.666Z,65.65
2022-10-09T18:34:04.265Z,66.03
2022-10-09T18:36:31.747Z,66.82
2022-10-09T18:39:10.038Z,66.32
2022-10-09T18:41:37.800Z,66.99
2022-10-09T18:44:17.294Z,66.69
2022-10-09T18:46:51.791Z,66.93
2022-10-09T18:49:22.510Z,66.81
2022-10-09T18:51:49.443Z,67.29
2022-10-09T18:54:19.339Z,67.25
2022-10-09T18:56:46.571Z,67.59
2022-10-09T18:59:18.163Z,67.00
2022-10-09T19:01:44.685Z,67.09
2022-10-09T19:04:11.532Z,66.70
2022-10-09T19:06:38.118Z,66.78
2022-10-09T19:09:05.179Z,66.24
2022-10-09T19:11:34.043Z,65.81
2022-10-09T19:14:01.759Z,66.03
2022-10-09T19:16:32.009Z,66.50
2022-10-09T19:18:58.990Z,66.25
2022-10-09T19:21:25.901Z,66.74
2022-10-09T19:23:54.080Z,66.61
2022-10-09T19:26:22.745Z,66.82
2022-10-09T19:28:49.234Z,66.66
2022-10-09T19:31:15.913Z,66.22
2022-10-09T19:33:43.192Z,66.27
2022-10-09T19:36:16.089Z,65.90
2022-10-09T19:38:43.159Z,65.79
2022-10-09T19:41:13.881Z,66.22
2022-10-09T19:43:41.396Z,66.28
2022-10-09T19:46:18.174Z,66.84
2022-10-09T19:48:45.796Z,67.59
2022-10-09T19:51:20.213Z,67.17
2022-10-09T19:53:47.292Z,67.08
2022-10-09T19:56:26.476Z,66.60
2022-10-09T19:58:55.194Z,66.33
2022-10-09T20:01:25.689Z,66.26
2022-10-09T20:04:07.521Z,66.47
2022-10-09T20:06:37.809Z,66.83
2022-10-09T20:09:06.811Z,66.41
2022-10-09T20:11:34.684Z,67.28
2022-10-09T20:14:02.053Z,67.16
2022-10-09T20:16:31.928Z,67.19
2022-10-09T20:19:01.008Z,67.54
2022-10-09T20:21:30.800Z,67.69
2022-10-09T20:23:58.684Z,67.89
2022-10-09T20:26:25.515Z,67.12
2022-10-09T20:28:55.412Z,67.44
2022-10-09T20:31:25.668Z,66.83
2022-10-09T20:33:54.167Z,67.41
2022-10-09T20:36:31.045Z,66.70
2022-10-09T20:39:00.839Z,66.99
2022-10-09T20:41:30.141Z,67.37
2022-10-09T20:44:00.356Z,67.79
2022-10-09T20:46:29.871Z,67.39
2022-10-09T20:48:56.790Z,67.22
2022-10-09T20:51:24.184Z,67.05
2022-10-09T20:53:56.813Z,67.32
2022-10-09T20:56:26.716Z,67.77
2022-10-09T20:58:55.057Z,67.95
2022-10-09T21:01:22.022Z,67.69
2022-10-09T21:03:49.222Z,67.24
2022-10-09T21:06:20.749Z,67.07
2022-10-09T21:08:47.359Z,67.13
2022-10-09T21:11:19.166Z,66.87
2022-10-09T21:13:46.543Z,67.32
2022-10-09T21:16:17.043Z,67.50
2022-10-09T21:18:43.542Z,67.46
2022-10-09T21:21:15.216Z,67.26
2022-10-09T21:23:42.955Z,67.77
2022-10-09T21:26:18.089Z,67.16
2022-10-09T21:28:45.869Z,67.58
2022-10-09T21:31:22.711Z,67.02
2022-10-09T21:33:49.738Z,66.66
2022-10-09T21:36:32.920Z,67.09
2022-10-09T21:38:59.542Z,67.61
2022-10-09T21:41:26.723Z,67.88
2022-10-09T21:43:53.416Z,68.42
2022-10-09T21:46:19.906Z,68.29
2022-10-09T21:48:46.396Z,68.50
2022-10-09T21:51:12.881Z,68.58
2022-10-09T21:53:39.340Z,68.49
2022-10-09T21:56:06.601Z,68.88
2022-10-09T21:58:33.108Z,68.72
2022-10-09T22:01:02.133Z,68.42
2022-10-09T22:03:32.640Z,68.48
2022-10-09T22:05:59.933Z,68.74
2022-10-09T22:08:27.275Z,68.53
2022-10-09T22:10:53.725Z,68.52
2022-10-09T22:13:21.569Z,68.45
2022-10-09T22:15:51.194Z,68.57
2022-10-09T22:18:19.473Z,68.24
2022-10-09T22:20:49.253Z,68.28
2022-10-09T22:23:19.041Z,68.31
2022-10-09T22:26:00.353Z,68.42
2022-10-09T22:28:26.911Z,68.95
2022-10-09T22:31:02.513Z,68.61
2022-10-09T22:33:29.774Z,68.84
2022-10-09T22:36:15.011Z,68.75
2022-10-09T22:38:43.690Z,68.77
2022-10-09T22:41:16.826Z,68.26
2022-10-09T22:43:47.739Z,68.17
2022-10-09T22:46:21.671Z,68.26
2022-10-09T22:48:48.525Z,68.21
2022-10-09T22:51:18.541Z,68.54
2022-10-09T22:53:46.431Z,68.29
2022-10-09T22:56:22.696Z,67.66
2022-10-09T22:58:51.640Z,67.96
2022-10-09T23:01:43.036Z,68.04
2022-10-09T23:04:13.223Z,68.70
2022-10-09T23:06:41.498Z,68.69
2022-10-09T23:09:12.165Z,69.02
2022-10-09T23:11:38.894Z,69.59
2022-10-09T23:14:05.709Z,69.86
2022-10-09T23:16:36.424Z,69.50
2022-10-09T23:19:07.098Z,69.01
2022-10-09T23:21:35.179Z,69.37
2022-10-09T23:24:01.949Z,68.94
2022-10-09T23:26:32.350Z,68.32
2022-10-09T23:29:09.482Z,68.44
2022-10-09T23:31:36.470Z,69.17
2022-10-09T23:34:05.974Z,68.87
2022-10-09T23:36:33.081Z,68.88
2022-10-09T23:39:02.919Z,68.72
2022-10-09T23:41:30.247Z,68.73
2022-10-09T23:43:57.075Z,68.56
2022-10-09T23:46:29.937Z,68.65
2022-10-09T23:48:56.574Z,68.53
2022-10-09T23:51:26.069Z,68.74
2022-10-09T23:53:53.194Z,69.71
2022-10-09T23:56:25.187Z,69.58
2022-10-09T23:58:53.709Z,69.14
